Mekoryuk, Alaska
Current Conditions -  °F | °C
As of 12:13 AM on Monday 20 Oct 2014 (Local Time) from PAOO Reporting Station
Unknown Precip Unknown Precip  
Wind Chill: 19°   Ceiling: 2100
Heat Index: 27°   Visibility: 10mi
Dew Point: 23°   Wind: 7mph
Humidity: 86%   Direction: 330°NNW
Pressure: 29.31"   Gusts: NA
Location:  60.39°N, 166.19°W
Report Text: PAOO 200813Z AUTO 33006KT 10SM UP BKN021 BKN026 BKN046 M03/M05 A2931 RMK AO2 TSNO BKN V SCT UPB03 P0000 $
Loading
Personal Weather Stations






























Interactive Weather Map
Tropical Storm Tracking
New forecast layout! Learn more

10-Day Weather Forecast

Advertisements
Track Severe Weather on mobile